African Highway — 3EOD8 — position and weather

sailwx.info

Track history (hours):
 
Tides and Currents Weather Stations Pressure Air Temp Water Temp Dewpoint Dewpoint Depression Visibility Wind Speed Wind Dir Waves Ship Positions

African Highway

Last reported at 2015-Aug-03 04:33 UTC. Time now 2015-Aug-03 04:39 UTC.
Position N 53°37' E 006°03'.

Length 154.5 m; beam 27.6 m.

Type: Cargo ship. MMSI: 353633000.

Date/timePositionNaut miles runAvg speedWind from/ knotsBaromVisibWave heightAir tempDewpointWater temp
2015-Aug-03 04:33N 53°37' E 006°03'1414.3
2015-Aug-03 03:33N 53°35' E 005°39'1414.3
2015-Aug-03 02:33N 53°32' E 005°16'1514.6
2015-Aug-03 01:33N 53°27' E 004°53'1414.4
2015-Aug-03 00:33N 53°16' E 004°36'1515.0
2015-Aug-02 23:33N 53°03' E 004°23'1515.1
2015-Aug-02 22:33N 52°50' E 004°14'1514.6
2015-Aug-02 21:33N 52°39' E 003°58'1514.7
2015-Aug-02 20:33N 52°28' E 003°42'1515.3
2015-Aug-02 19:33N 52°17' E 003°23'1615.7
2015-Aug-02 18:33N 52°06' E 003°05'1615.7
2015-Aug-02 17:33N 51°57' E 002°45'1616.5
2015-Aug-02 16:33N 51°49' E 002°21'1817.5
2015-Aug-02 15:33N 51°39' E 001°58'1717.3
2015-Aug-02 14:33N 51°29' E 001°36'9 9.3
2015-Aug-02 13:33N 51°29' E 001°21'1313.4
2015-Aug-02 12:33N 51°29' E 000°59'10 9.2
2015-Aug-02 11:31N 51°26' E 000°44'0 0.0
2015-Aug-02 10:31N 51°26' E 000°44'0 0.0
2015-Aug-02 09:31N 51°26' E 000°44'0 0.0
2015-Aug-02 08:31N 51°26' E 000°44'0 0.0
2015-Aug-02 07:31N 51°26' E 000°44'0 0.0
2015-Aug-02 06:31N 51°26' E 000°44'0 0.0
2015-Aug-02 05:31N 51°26' E 000°44'0 0.0
2015-Aug-02 04:31N 51°26' E 000°44'0 0.0
2015-Aug-02 03:31N 51°26' E 000°44'0 0.0
2015-Aug-02 02:31N 51°26' E 000°44'0 0.0
2015-Aug-02 01:31N 51°26' E 000°44'0 0.0
2015-Aug-02 00:31N 51°26' E 000°44'0 0.0
2015-Aug-01 23:31N 51°26' E 000°44'0 0.0
2015-Aug-01 22:25N 51°26' E 000°44'0 0.0
2015-Aug-01 21:31N 51°26' E 000°44'6 6.1
2015-Aug-01 20:34N 51°29' E 000°53'1313.4
2015-Aug-01 19:34N 51°34' E 001°13'9 8.8
2015-Aug-01 18:33N 51°33' E 001°27'7 6.9
2015-Aug-01 17:34N 51°27' E 001°33'8 8.0
2015-Aug-01 16:33N 51°31' E 001°44'9 8.8
2015-Aug-01 15:34N 51°35' E 001°57'1010.4
2015-Aug-01 14:33N 51°39' E 002°13'1312.7
2015-Aug-01 13:33N 51°48' E 002°27'1313.4
2015-Aug-01 12:33N 51°58' E 002°41'1514.8
2015-Aug-01 11:33N 52°09' E 002°56'1715.7
2015-Aug-01 10:29N 52°23' E 003°12'1516.0
2015-Aug-01 09:33N 52°35' E 003°27'1615.9
2015-Aug-01 08:33N 52°48' E 003°43'1515.1
2015-Aug-01 07:33N 52°58' E 004°02'1414.2
2015-Aug-01 06:34N 53°07' E 004°19'1313.2
2015-Aug-01 05:34N 53°18' E 004°31'1312.8
2015-Aug-01 04:33N 53°29' E 004°42'1414.1
2015-Aug-01 03:33N 53°35' E 005°04'1615.6
2015-Aug-01 02:33N 53°40' E 005°29'1616.0
2015-Aug-01 01:33N 53°45' E 005°54'1313.3
2015-Aug-01 00:33N 53°42' E 006°16'1211.7
2015-Jul-31 23:33N 53°37' E 006°34'1514.8
2015-Jul-31 22:33N 53°27' E 006°53'1110.5
2015-Jul-31 21:34N 53°20' E 007°06'3 3.0
2015-Jul-31 20:31N 53°20' E 007°11'0 0.0
2015-Jul-31 19:31N 53°20' E 007°11'0 0.0
2015-Jul-31 18:31N 53°20' E 007°11'0 0.0
2015-Jul-31 17:31N 53°20' E 007°11'0 0.0
2015-Jul-31 16:31N 53°20' E 007°11'0 0.0
2015-Jul-31 15:31N 53°20' E 007°11'0 0.0
2015-Jul-31 14:28N 53°20' E 007°11'0 0.0
2015-Jul-31 13:19N 53°20' E 007°11'0 0.0
2015-Jul-31 12:31N 53°20' E 007°11'0 0.0
2015-Jul-31 11:28N 53°20' E 007°11'0 0.0
2015-Jul-31 10:19N 53°20' E 007°11'0 0.0
2015-Jul-31 09:28N 53°20' E 007°11'0 0.0
2015-Jul-31 08:31N 53°20' E 007°11'4 3.7
2015-Jul-31 07:33N 53°20' E 007°05'1212.1
2015-Jul-31 06:33N 53°28' E 006°51'1615.9
2015-Jul-31 05:33N 53°37' E 006°28'6 5.8
2015-Jul-31 04:33N 53°38' E 006°19'8 8.0
2015-Jul-31 03:33N 53°38' E 006°05'9 9.2
2015-Jul-31 02:33N 53°44' E 005°53'5 5.1
2015-Jul-31 01:33N 53°48' E 005°50'2 2.2
2015-Jul-31 00:33N 53°50' E 005°52'2 2.3
2015-Jul-30 23:33N 53°48' E 005°51'2 2.5
2015-Jul-30 22:33N 53°50' E 005°53'2 2.1
2015-Jul-30 21:33N 53°52' E 005°54'4 4.3
2015-Jul-30 20:33N 53°48' E 005°57'2 1.7
2015-Jul-30 19:33N 53°50' E 005°56'2 1.9
2015-Jul-30 18:33N 53°51' E 005°53'1515.1
2015-Jul-30 17:33N 53°45' E 005°30'1110.9
2015-Jul-30 16:33N 53°50' E 005°13'1413.9
2015-Jul-30 15:33N 53°59' E 004°54'14914.7
2015-Jul-30 05:23N 53°35' E 000°45'1214.8
2015-Jul-30 04:33N 53°32' E 000°25'1211.8
2015-Jul-30 03:34N 53°34' E 000°06'6 5.8
2015-Jul-30 02:31N 53°35' W 000°04'0 0.0
2015-Jul-30 01:31N 53°35' W 000°04'0 0.0
2015-Jul-30 00:31N 53°35' W 000°04'0 0.0
2015-Jul-29 23:31N 53°35' W 000°04'0 0.0
2015-Jul-29 22:31N 53°35' W 000°04'0 0.0
2015-Jul-29 21:31N 53°35' W 000°04'0 0.0
2015-Jul-29 20:31N 53°35' W 000°04'0 0.0
2015-Jul-29 19:31N 53°35' W 000°04'0 0.0
2015-Jul-29 18:31N 53°35' W 000°04'0 0.0
2015-Jul-29 17:31N 53°35' W 000°04'0 0.0
2015-Jul-29 16:31N 53°35' W 000°04'0 0.2
2015-Jul-29 15:34N 53°35' W 000°04'8 8.2
2015-Jul-29 14:34N 53°33' E 000°10'8 7.8
2015-Jul-29 13:33N 53°33' E 000°23'7 6.9
2015-Jul-29 12:33N 53°31' E 000°34'8 7.6
2015-Jul-29 11:33N 53°27' E 000°45'1 1.0
2015-Jul-29 10:30N 53°28' E 000°46'3 1.3
2015-Jul-29 08:28N 53°29' E 000°50'12313.3
2015-Jul-28 23:14N 54°01' E 004°11'1014.4
2015-Jul-28 22:33N 54°03' E 004°28'1414.4
2015-Jul-28 21:33N 54°05' E 004°52'1211.5
2015-Jul-28 20:33N 54°01' E 005°10'1414.2
2015-Jul-28 19:33N 53°58' E 005°34'1413.6
2015-Jul-28 18:33N 53°53' E 005°56'1412.8
2015-Jul-28 17:27N 53°43' E 006°12'910.5
2015-Jul-28 16:33N 53°37' E 006°25'1110.7
2015-Jul-28 15:33N 53°33' E 006°42'1110.9
2015-Jul-28 14:33N 53°26' E 006°55'10 9.5
2015-Jul-28 13:33N 53°20' E 007°08'2 1.8
2015-Jul-28 12:32N 53°20' E 007°11'0 0.0
2015-Jul-28 11:32N 53°20' E 007°11'0 0.0
2015-Jul-28 10:32N 53°20' E 007°11'0 0.0
2015-Jul-28 09:32N 53°20' E 007°11'0 0.0
2015-Jul-28 08:32N 53°20' E 007°11'0 0.0
2015-Jul-28 07:32N 53°20' E 007°11'0 0.0
2015-Jul-28 06:29N 53°20' E 007°11'0 0.0
2015-Jul-28 05:32N 53°20' E 007°11'0 0.0
2015-Jul-28 04:32N 53°20' E 007°11'0 0.0
2015-Jul-28 03:32N 53°20' E 007°11'0 0.0
2015-Jul-28 02:32N 53°20' E 007°11'0 0.0
2015-Jul-28 01:32N 53°20' E 007°11'0 0.0
2015-Jul-28 00:32N 53°20' E 007°11'0 0.0
2015-Jul-27 23:32N 53°20' E 007°11'0 0.0
2015-Jul-27 22:32N 53°20' E 007°11'0 0.0
2015-Jul-27 21:32N 53°20' E 007°11'0 0.0
2015-Jul-27 20:26N 53°20' E 007°11'0 0.0
2015-Jul-27 19:32N 53°20' E 007°11'0 0.0
2015-Jul-27 18:32N 53°20' E 007°11'0 0.0
2015-Jul-27 17:32N 53°20' E 007°11'0 0.0
2015-Jul-27 16:32N 53°20' E 007°11'0 0.0
2015-Jul-27 15:32N 53°20' E 007°11'0 0.0
2015-Jul-27 14:32N 53°20' E 007°11'1 1.0
2015-Jul-27 13:33N 53°20' E 007°09'8 8.3
2015-Jul-27 12:34N 53°24' E 006°57'1313.5
2015-Jul-27 11:33N 53°33' E 006°41'1313.4
2015-Jul-27 10:33N 53°38' E 006°20'6 6.3
2015-Jul-27 09:33N 53°40' E 006°09'10 9.5
2015-Jul-27 08:33N 53°49' E 006°03'6 5.8
2015-Jul-27 07:33N 53°54' E 005°58'3 2.7
2015-Jul-27 06:33N 53°56' E 005°60'3 2.8
2015-Jul-27 05:33N 53°55' E 005°56'2 2.5
2015-Jul-27 04:33N 53°53' E 005°52'1 1.2
2015-Jul-27 03:33N 53°52' E 005°53'6 6.1
2015-Jul-27 02:31N 53°58' E 005°55'2 2.4
2015-Jul-27 01:33N 53°56' E 005°53'2 2.3
2015-Jul-27 00:33N 53°54' E 005°52'2 1.6
2015-Jul-26 23:33N 53°53' E 005°54'6 6.4
2015-Jul-26 22:33N 53°58' E 006°01'2 1.6
2015-Jul-26 21:33N 53°57' E 006°01'1 1.4
2015-Jul-26 20:33N 53°55' E 006°01'1 1.0
2015-Jul-26 19:33N 53°54' E 006°00'4 3.8
2015-Jul-26 18:33N 53°51' E 006°01'2 1.6
2015-Jul-26 17:33N 53°51' E 005°59'1 1.3
2015-Jul-26 16:33N 53°51' E 005°56'1 1.1
2015-Jul-26 15:33N 53°52' E 005°57'1 0.7
2015-Jul-26 14:33N 53°53' E 005°58'1 0.7
2015-Jul-26 13:33N 53°53' E 005°57'1 0.9
2015-Jul-26 12:33N 53°54' E 005°55'1 0.7
2015-Jul-26 11:33N 53°54' E 005°54'1 1.1
2015-Jul-26 10:33N 53°55' E 005°54'2 2.2
2015-Jul-26 09:32N 53°53' E 005°53'4 3.7
2015-Jul-26 08:33N 53°50' E 005°52'2 2.1
2015-Jul-26 07:33N 53°52' E 005°53'1 1.0
2015-Jul-26 06:33N 53°53' E 005°53'1313.6
2015-Jul-26 05:34N 53°43' E 005°36'1111.5
2015-Jul-26 04:34N 53°34' E 005°25'1514.7
2015-Jul-26 03:34N 53°28' E 005°02'1414.3
2015-Jul-26 02:34N 53°22' E 004°41'1514.5
2015-Jul-26 01:34N 53°09' E 004°30'1514.8
2015-Jul-26 00:33N 52°56' E 004°18'1515.1
2015-Jul-25 23:33N 52°44' E 004°03'1515.1
2015-Jul-25 22:33N 52°32' E 003°47'7114.0
2015-Jul-25 17:29N 51°48' E 002°16'1213.0
2015-Jul-25 16:33N 51°40' E 002°01'1313.3
2015-Jul-25 15:33N 51°32' E 001°44'1111.3
2015-Jul-25 14:33N 51°27' E 001°28'1313.1
2015-Jul-25 13:33N 51°29' E 001°08'1313.3
2015-Jul-25 12:33N 51°28' E 000°47'2 1.8
2015-Jul-25 11:31N 51°26' E 000°44'0 0.0
2015-Jul-25 10:31N 51°26' E 000°44'0 0.0
2015-Jul-25 09:31N 51°26' E 000°44'0 0.0
2015-Jul-25 08:25N 51°26' E 000°44'0 0.0
2015-Jul-25 07:31N 51°26' E 000°44'0 0.0
2015-Jul-25 06:31N 51°26' E 000°44'0 0.0
2015-Jul-25 05:31N 51°26' E 000°44'0 0.0
2015-Jul-25 04:31N 51°26' E 000°44'0 0.0
2015-Jul-25 03:31N 51°26' E 000°44'0 0.0
2015-Jul-25 02:31N 51°26' E 000°44'0 0.0
2015-Jul-25 01:31N 51°26' E 000°44'0 0.0
2015-Jul-25 00:31N 51°26' E 000°44'0 0.0
2015-Jul-24 23:31N 51°26' E 000°44'0 0.0
2015-Jul-24 22:31N 51°26' E 000°44'0 0.0
2015-Jul-24 21:31N 51°26' E 000°44'0 0.0
2015-Jul-24 20:31N 51°26' E 000°44'0 0.0
2015-Jul-24 19:31N 51°26' E 000°44'0 0.0
2015-Jul-24 18:31N 51°26' E 000°44'0 0.0
2015-Jul-24 17:33N 51°26' E 000°44'7 6.7
2015-Jul-24 16:34N 51°29' E 000°54'1514.7
2015-Jul-24 15:34N 51°29' E 001°18'9 9.1
2015-Jul-24 14:33N 51°26' E 001°32'8 8.1
2015-Jul-24 13:33N 51°31' E 001°42'1615.6
2015-Jul-24 12:33N 51°41' E 002°02'1414.0
2015-Jul-24 11:33N 51°49' E 002°20'10 9.4
2015-Jul-24 10:32N 51°57' E 002°30'1714.1
2015-Jul-24 09:20N 52°07' E 002°52'1314.3
2015-Jul-24 08:27N 52°18' E 003°03'1213.9
2015-Jul-24 07:33N 52°26' E 003°18'1414.1
2015-Jul-24 06:32N 52°38' E 003°32'1514.8
2015-Jul-24 05:31N 52°50' E 003°46'1515.4
2015-Jul-24 04:34N 52°60' E 004°05'  
Track history (hours):
 
Tides and Currents Weather Stations Pressure Air Temp Water Temp Dewpoint Dewpoint Depression Visibility Wind Speed Wind Dir Waves Ship Positions

African Highway

Last reported at 2015-Aug-03 04:33 UTC. Time now 2015-Aug-03 04:39 UTC.
Position N 53°37' E 006°03'.

Length 154.5 m; beam 27.6 m.

Type: Cargo ship. MMSI: 353633000.

Date/timePositionNaut miles runAvg speedWind from/ knotsBaromVisibWave heightAir tempDewpointWater temp
2015-Aug-03 04:33N 53°37' E 006°03'1414.3
2015-Aug-03 03:33N 53°35' E 005°39'1414.3
2015-Aug-03 02:33N 53°32' E 005°16'1514.6
2015-Aug-03 01:33N 53°27' E 004°53'1414.4
2015-Aug-03 00:33N 53°16' E 004°36'1515.0
2015-Aug-02 23:33N 53°03' E 004°23'1515.1
2015-Aug-02 22:33N 52°50' E 004°14'1514.6
2015-Aug-02 21:33N 52°39' E 003°58'1514.7
2015-Aug-02 20:33N 52°28' E 003°42'1515.3
2015-Aug-02 19:33N 52°17' E 003°23'1615.7
2015-Aug-02 18:33N 52°06' E 003°05'1615.7
2015-Aug-02 17:33N 51°57' E 002°45'1616.5
2015-Aug-02 16:33N 51°49' E 002°21'1817.5
2015-Aug-02 15:33N 51°39' E 001°58'1717.3
2015-Aug-02 14:33N 51°29' E 001°36'9 9.3
2015-Aug-02 13:33N 51°29' E 001°21'1313.4
2015-Aug-02 12:33N 51°29' E 000°59'10 9.2
2015-Aug-02 11:31N 51°26' E 000°44'0 0.0
2015-Aug-02 10:31N 51°26' E 000°44'0 0.0
2015-Aug-02 09:31N 51°26' E 000°44'0 0.0
2015-Aug-02 08:31N 51°26' E 000°44'0 0.0
2015-Aug-02 07:31N 51°26' E 000°44'0 0.0
2015-Aug-02 06:31N 51°26' E 000°44'0 0.0
2015-Aug-02 05:31N 51°26' E 000°44'0 0.0
2015-Aug-02 04:31N 51°26' E 000°44'0 0.0
2015-Aug-02 03:31N 51°26' E 000°44'0 0.0
2015-Aug-02 02:31N 51°26' E 000°44'0 0.0
2015-Aug-02 01:31N 51°26' E 000°44'0 0.0
2015-Aug-02 00:31N 51°26' E 000°44'0 0.0
2015-Aug-01 23:31N 51°26' E 000°44'0 0.0
2015-Aug-01 22:25N 51°26' E 000°44'0 0.0
2015-Aug-01 21:31N 51°26' E 000°44'6 6.1
2015-Aug-01 20:34N 51°29' E 000°53'1313.4
2015-Aug-01 19:34N 51°34' E 001°13'9 8.8
2015-Aug-01 18:33N 51°33' E 001°27'7 6.9
2015-Aug-01 17:34N 51°27' E 001°33'8 8.0
2015-Aug-01 16:33N 51°31' E 001°44'9 8.8
2015-Aug-01 15:34N 51°35' E 001°57'1010.4
2015-Aug-01 14:33N 51°39' E 002°13'1312.7
2015-Aug-01 13:33N 51°48' E 002°27'1313.4
2015-Aug-01 12:33N 51°58' E 002°41'1514.8
2015-Aug-01 11:33N 52°09' E 002°56'1715.7
2015-Aug-01 10:29N 52°23' E 003°12'1516.0
2015-Aug-01 09:33N 52°35' E 003°27'1615.9
2015-Aug-01 08:33N 52°48' E 003°43'1515.1
2015-Aug-01 07:33N 52°58' E 004°02'1414.2
2015-Aug-01 06:34N 53°07' E 004°19'1313.2
2015-Aug-01 05:34N 53°18' E 004°31'1312.8
2015-Aug-01 04:33N 53°29' E 004°42'1414.1
2015-Aug-01 03:33N 53°35' E 005°04'1615.6
2015-Aug-01 02:33N 53°40' E 005°29'1616.0
2015-Aug-01 01:33N 53°45' E 005°54'1313.3
2015-Aug-01 00:33N 53°42' E 006°16'1211.7
2015-Jul-31 23:33N 53°37' E 006°34'1514.8
2015-Jul-31 22:33N 53°27' E 006°53'1110.5
2015-Jul-31 21:34N 53°20' E 007°06'3 3.0
2015-Jul-31 20:31N 53°20' E 007°11'0 0.0
2015-Jul-31 19:31N 53°20' E 007°11'0 0.0
2015-Jul-31 18:31N 53°20' E 007°11'0 0.0
2015-Jul-31 17:31N 53°20' E 007°11'0 0.0
2015-Jul-31 16:31N 53°20' E 007°11'0 0.0
2015-Jul-31 15:31N 53°20' E 007°11'0 0.0
2015-Jul-31 14:28N 53°20' E 007°11'0 0.0
2015-Jul-31 13:19N 53°20' E 007°11'0 0.0
2015-Jul-31 12:31N 53°20' E 007°11'0 0.0
2015-Jul-31 11:28N 53°20' E 007°11'0 0.0
2015-Jul-31 10:19N 53°20' E 007°11'0 0.0
2015-Jul-31 09:28N 53°20' E 007°11'0 0.0
2015-Jul-31 08:31N 53°20' E 007°11'4 3.7
2015-Jul-31 07:33N 53°20' E 007°05'1212.1
2015-Jul-31 06:33N 53°28' E 006°51'1615.9
2015-Jul-31 05:33N 53°37' E 006°28'6 5.8
2015-Jul-31 04:33N 53°38' E 006°19'8 8.0
2015-Jul-31 03:33N 53°38' E 006°05'9 9.2
2015-Jul-31 02:33N 53°44' E 005°53'5 5.1
2015-Jul-31 01:33N 53°48' E 005°50'2 2.2
2015-Jul-31 00:33N 53°50' E 005°52'2 2.3
2015-Jul-30 23:33N 53°48' E 005°51'2 2.5
2015-Jul-30 22:33N 53°50' E 005°53'2 2.1
2015-Jul-30 21:33N 53°52' E 005°54'4 4.3
2015-Jul-30 20:33N 53°48' E 005°57'2 1.7
2015-Jul-30 19:33N 53°50' E 005°56'2 1.9
2015-Jul-30 18:33N 53°51' E 005°53'1515.1
2015-Jul-30 17:33N 53°45' E 005°30'1110.9
2015-Jul-30 16:33N 53°50' E 005°13'1413.9
2015-Jul-30 15:33N 53°59' E 004°54'14914.7
2015-Jul-30 05:23N 53°35' E 000°45'1214.8
2015-Jul-30 04:33N 53°32' E 000°25'1211.8
2015-Jul-30 03:34N 53°34' E 000°06'6 5.8
2015-Jul-30 02:31N 53°35' W 000°04'0 0.0
2015-Jul-30 01:31N 53°35' W 000°04'0 0.0
2015-Jul-30 00:31N 53°35' W 000°04'0 0.0
2015-Jul-29 23:31N 53°35' W 000°04'0 0.0
2015-Jul-29 22:31N 53°35' W 000°04'0 0.0
2015-Jul-29 21:31N 53°35' W 000°04'0 0.0
2015-Jul-29 20:31N 53°35' W 000°04'0 0.0
2015-Jul-29 19:31N 53°35' W 000°04'0 0.0
2015-Jul-29 18:31N 53°35' W 000°04'0 0.0
2015-Jul-29 17:31N 53°35' W 000°04'0 0.0
2015-Jul-29 16:31N 53°35' W 000°04'0 0.2
2015-Jul-29 15:34N 53°35' W 000°04'8 8.2
2015-Jul-29 14:34N 53°33' E 000°10'8 7.8
2015-Jul-29 13:33N 53°33' E 000°23'7 6.9
2015-Jul-29 12:33N 53°31' E 000°34'8 7.6
2015-Jul-29 11:33N 53°27' E 000°45'1 1.0
2015-Jul-29 10:30N 53°28' E 000°46'3 1.3
2015-Jul-29 08:28N 53°29' E 000°50'12313.3
2015-Jul-28 23:14N 54°01' E 004°11'1014.4
2015-Jul-28 22:33N 54°03' E 004°28'1414.4
2015-Jul-28 21:33N 54°05' E 004°52'1211.5
2015-Jul-28 20:33N 54°01' E 005°10'1414.2
2015-Jul-28 19:33N 53°58' E 005°34'1413.6
2015-Jul-28 18:33N 53°53' E 005°56'1412.8
2015-Jul-28 17:27N 53°43' E 006°12'910.5
2015-Jul-28 16:33N 53°37' E 006°25'1110.7
2015-Jul-28 15:33N 53°33' E 006°42'1110.9
2015-Jul-28 14:33N 53°26' E 006°55'10 9.5
2015-Jul-28 13:33N 53°20' E 007°08'2 1.8
2015-Jul-28 12:32N 53°20' E 007°11'0 0.0
2015-Jul-28 11:32N 53°20' E 007°11'0 0.0
2015-Jul-28 10:32N 53°20' E 007°11'0 0.0
2015-Jul-28 09:32N 53°20' E 007°11'0 0.0
2015-Jul-28 08:32N 53°20' E 007°11'0 0.0
2015-Jul-28 07:32N 53°20' E 007°11'0 0.0
2015-Jul-28 06:29N 53°20' E 007°11'0 0.0
2015-Jul-28 05:32N 53°20' E 007°11'0 0.0
2015-Jul-28 04:32N 53°20' E 007°11'0 0.0
2015-Jul-28 03:32N 53°20' E 007°11'0 0.0
2015-Jul-28 02:32N 53°20' E 007°11'0 0.0
2015-Jul-28 01:32N 53°20' E 007°11'0 0.0
2015-Jul-28 00:32N 53°20' E 007°11'0 0.0
2015-Jul-27 23:32N 53°20' E 007°11'0 0.0
2015-Jul-27 22:32N 53°20' E 007°11'0 0.0
2015-Jul-27 21:32N 53°20' E 007°11'0 0.0
2015-Jul-27 20:26N 53°20' E 007°11'0 0.0
2015-Jul-27 19:32N 53°20' E 007°11'0 0.0
2015-Jul-27 18:32N 53°20' E 007°11'0 0.0
2015-Jul-27 17:32N 53°20' E 007°11'0 0.0
2015-Jul-27 16:32N 53°20' E 007°11'0 0.0
2015-Jul-27 15:32N 53°20' E 007°11'0 0.0
2015-Jul-27 14:32N 53°20' E 007°11'1 1.0
2015-Jul-27 13:33N 53°20' E 007°09'8 8.3
2015-Jul-27 12:34N 53°24' E 006°57'1313.5
2015-Jul-27 11:33N 53°33' E 006°41'1313.4
2015-Jul-27 10:33N 53°38' E 006°20'6 6.3
2015-Jul-27 09:33N 53°40' E 006°09'10 9.5
2015-Jul-27 08:33N 53°49' E 006°03'6 5.8
2015-Jul-27 07:33N 53°54' E 005°58'3 2.7
2015-Jul-27 06:33N 53°56' E 005°60'3 2.8
2015-Jul-27 05:33N 53°55' E 005°56'2 2.5
2015-Jul-27 04:33N 53°53' E 005°52'1 1.2
2015-Jul-27 03:33N 53°52' E 005°53'6 6.1
2015-Jul-27 02:31N 53°58' E 005°55'2 2.4
2015-Jul-27 01:33N 53°56' E 005°53'2 2.3
2015-Jul-27 00:33N 53°54' E 005°52'2 1.6
2015-Jul-26 23:33N 53°53' E 005°54'6 6.4
2015-Jul-26 22:33N 53°58' E 006°01'2 1.6
2015-Jul-26 21:33N 53°57' E 006°01'1 1.4
2015-Jul-26 20:33N 53°55' E 006°01'1 1.0
2015-Jul-26 19:33N 53°54' E 006°00'4 3.8
2015-Jul-26 18:33N 53°51' E 006°01'2 1.6
2015-Jul-26 17:33N 53°51' E 005°59'1 1.3
2015-Jul-26 16:33N 53°51' E 005°56'1 1.1
2015-Jul-26 15:33N 53°52' E 005°57'1 0.7
2015-Jul-26 14:33N 53°53' E 005°58'1 0.7
2015-Jul-26 13:33N 53°53' E 005°57'1 0.9
2015-Jul-26 12:33N 53°54' E 005°55'1 0.7
2015-Jul-26 11:33N 53°54' E 005°54'1 1.1
2015-Jul-26 10:33N 53°55' E 005°54'2 2.2
2015-Jul-26 09:32N 53°53' E 005°53'4 3.7
2015-Jul-26 08:33N 53°50' E 005°52'2 2.1
2015-Jul-26 07:33N 53°52' E 005°53'1 1.0
2015-Jul-26 06:33N 53°53' E 005°53'1313.6
2015-Jul-26 05:34N 53°43' E 005°36'1111.5
2015-Jul-26 04:34N 53°34' E 005°25'1514.7
2015-Jul-26 03:34N 53°28' E 005°02'1414.3
2015-Jul-26 02:34N 53°22' E 004°41'1514.5
2015-Jul-26 01:34N 53°09' E 004°30'1514.8
2015-Jul-26 00:33N 52°56' E 004°18'1515.1
2015-Jul-25 23:33N 52°44' E 004°03'1515.1
2015-Jul-25 22:33N 52°32' E 003°47'7114.0
2015-Jul-25 17:29N 51°48' E 002°16'1213.0
2015-Jul-25 16:33N 51°40' E 002°01'1313.3
2015-Jul-25 15:33N 51°32' E 001°44'1111.3
2015-Jul-25 14:33N 51°27' E 001°28'1313.1
2015-Jul-25 13:33N 51°29' E 001°08'1313.3
2015-Jul-25 12:33N 51°28' E 000°47'2 1.8
2015-Jul-25 11:31N 51°26' E 000°44'0 0.0
2015-Jul-25 10:31N 51°26' E 000°44'0 0.0
2015-Jul-25 09:31N 51°26' E 000°44'0 0.0
2015-Jul-25 08:25N 51°26' E 000°44'0 0.0
2015-Jul-25 07:31N 51°26' E 000°44'0 0.0
2015-Jul-25 06:31N 51°26' E 000°44'0 0.0
2015-Jul-25 05:31N 51°26' E 000°44'0 0.0
2015-Jul-25 04:31N 51°26' E 000°44'0 0.0
2015-Jul-25 03:31N 51°26' E 000°44'0 0.0
2015-Jul-25 02:31N 51°26' E 000°44'0 0.0
2015-Jul-25 01:31N 51°26' E 000°44'0 0.0
2015-Jul-25 00:31N 51°26' E 000°44'0 0.0
2015-Jul-24 23:31N 51°26' E 000°44'0 0.0
2015-Jul-24 22:31N 51°26' E 000°44'0 0.0
2015-Jul-24 21:31N 51°26' E 000°44'0 0.0
2015-Jul-24 20:31N 51°26' E 000°44'0 0.0
2015-Jul-24 19:31N 51°26' E 000°44'0 0.0
2015-Jul-24 18:31N 51°26' E 000°44'0 0.0
2015-Jul-24 17:33N 51°26' E 000°44'7 6.7
2015-Jul-24 16:34N 51°29' E 000°54'1514.7
2015-Jul-24 15:34N 51°29' E 001°18'9 9.1
2015-Jul-24 14:33N 51°26' E 001°32'8 8.1
2015-Jul-24 13:33N 51°31' E 001°42'1615.6
2015-Jul-24 12:33N 51°41' E 002°02'1414.0
2015-Jul-24 11:33N 51°49' E 002°20'10 9.4
2015-Jul-24 10:32N 51°57' E 002°30'1714.1
2015-Jul-24 09:20N 52°07' E 002°52'1314.3
2015-Jul-24 08:27N 52°18' E 003°03'1213.9
2015-Jul-24 07:33N 52°26' E 003°18'1414.1
2015-Jul-24 06:32N 52°38' E 003°32'1514.8
2015-Jul-24 05:31N 52°50' E 003°46'1515.4
2015-Jul-24 04:34N 52°60' E 004°05'  

Dump ship's entire track history